sensor_id;sensor_type;location;lat;lon;timestamp;P1;durP1;ratioP1;P2;durP2;ratioP2
9438;SDS011;5176;42.622;25.386;2023-06-04T00:00:20;7.03;;;5.18;;
9438;SDS011;5176;42.622;25.386;2023-06-04T00:02:48;7.60;;;5.18;;
9438;SDS011;5176;42.622;25.386;2023-06-04T00:05:15;8.38;;;4.97;;
9438;SDS011;5176;42.622;25.386;2023-06-04T00:07:43;5.22;;;4.72;;
9438;SDS011;5176;42.622;25.386;2023-06-04T00:10:10;8.10;;;5.65;;
9438;SDS011;5176;42.622;25.386;2023-06-04T00:12:38;7.00;;;5.68;;
9438;SDS011;5176;42.622;25.386;2023-06-04T00:15:05;5.22;;;4.70;;
9438;SDS011;5176;42.622;25.386;2023-06-04T00:17:35;5.85;;;5.20;;
9438;SDS011;5176;42.622;25.386;2023-06-04T00:20:02;7.00;;;5.00;;
9438;SDS011;5176;42.622;25.386;2023-06-04T00:22:30;6.60;;;5.25;;
9438;SDS011;5176;42.622;25.386;2023-06-04T00:24:58;5.88;;;5.28;;
9438;SDS011;5176;42.622;25.386;2023-06-04T00:27:25;8.02;;;5.47;;
9438;SDS011;5176;42.622;25.386;2023-06-04T00:29:52;5.18;;;4.78;;
9438;SDS011;5176;42.622;25.386;2023-06-04T00:32:20;8.85;;;6.15;;
9438;SDS011;5176;42.622;25.386;2023-06-04T00:34:51;7.88;;;5.72;;
9438;SDS011;5176;42.622;25.386;2023-06-04T00:37:19;6.10;;;5.45;;
9438;SDS011;5176;42.622;25.386;2023-06-04T00:39:47;6.88;;;5.03;;
9438;SDS011;5176;42.622;25.386;2023-06-04T00:42:14;7.75;;;5.38;;
9438;SDS011;5176;42.622;25.386;2023-06-04T00:44:41;10.55;;;6.15;;
9438;SDS011;5176;42.622;25.386;2023-06-04T00:47:09;6.60;;;5.53;;
9438;SDS011;5176;42.622;25.386;2023-06-04T00:49:38;11.50;;;5.93;;
9438;SDS011;5176;42.622;25.386;2023-06-04T00:52:07;6.72;;;5.30;;
9438;SDS011;5176;42.622;25.386;2023-06-04T00:54:35;6.70;;;5.35;;
9438;SDS011;5176;42.622;25.386;2023-06-04T00:57:03;9.35;;;5.93;;
9438;SDS011;5176;42.622;25.386;2023-06-04T00:59:32;6.68;;;6.07;;
9438;SDS011;5176;42.622;25.386;2023-06-04T01:02:01;7.22;;;5.88;;
9438;SDS011;5176;42.622;25.386;2023-06-04T01:04:33;9.00;;;5.95;;
9438;SDS011;5176;42.622;25.386;2023-06-04T01:07:04;9.18;;;5.20;;
9438;SDS011;5176;42.622;25.386;2023-06-04T01:09:37;8.18;;;5.70;;
9438;SDS011;5176;42.622;25.386;2023-06-04T01:12:06;6.10;;;5.60;;
9438;SDS011;5176;42.622;25.386;2023-06-04T01:14:33;10.88;;;5.82;;
9438;SDS011;5176;42.622;25.386;2023-06-04T01:17:01;5.93;;;5.43;;
9438;SDS011;5176;42.622;25.386;2023-06-04T01:19:39;7.28;;;5.50;;
9438;SDS011;5176;42.622;25.386;2023-06-04T01:22:30;7.75;;;5.38;;
9438;SDS011;5176;42.622;25.386;2023-06-04T01:25:02;10.15;;;5.30;;
9438;SDS011;5176;42.622;25.386;2023-06-04T01:27:31;7.28;;;5.35;;
9438;SDS011;5176;42.622;25.386;2023-06-04T01:30:00;6.05;;;5.45;;
9438;SDS011;5176;42.622;25.386;2023-06-04T01:32:28;7.13;;;5.85;;
9438;SDS011;5176;42.622;25.386;2023-06-04T01:34:56;8.68;;;5.43;;
9438;SDS011;5176;42.622;25.386;2023-06-04T01:37:24;6.50;;;5.65;;
9438;SDS011;5176;42.622;25.386;2023-06-04T01:39:53;6.68;;;5.93;;
9438;SDS011;5176;42.622;25.386;2023-06-04T01:42:20;7.47;;;5.80;;
9438;SDS011;5176;42.622;25.386;2023-06-04T01:44:47;5.80;;;5.30;;
9438;SDS011;5176;42.622;25.386;2023-06-04T01:47:14;7.13;;;5.82;;
9438;SDS011;5176;42.622;25.386;2023-06-04T01:49:41;6.38;;;5.88;;
9438;SDS011;5176;42.622;25.386;2023-06-04T01:52:08;7.57;;;5.55;;
9438;SDS011;5176;42.622;25.386;2023-06-04T01:54:36;7.63;;;6.28;;
9438;SDS011;5176;42.622;25.386;2023-06-04T01:57:06;7.03;;;5.90;;
9438;SDS011;5176;42.622;25.386;2023-06-04T01:59:33;6.70;;;6.10;;
9438;SDS011;5176;42.622;25.386;2023-06-04T02:02:01;6.32;;;5.72;;
9438;SDS011;5176;42.622;25.386;2023-06-04T02:04:29;9.25;;;6.22;;
9438;SDS011;5176;42.622;25.386;2023-06-04T02:06:56;8.27;;;5.95;;
9438;SDS011;5176;42.622;25.386;2023-06-04T02:09:24;7.45;;;6.35;;
9438;SDS011;5176;42.622;25.386;2023-06-04T02:11:52;9.48;;;6.18;;
9438;SDS011;5176;42.622;25.386;2023-06-04T02:14:21;8.32;;;6.63;;
9438;SDS011;5176;42.622;25.386;2023-06-04T02:16:48;11.52;;;6.57;;
9438;SDS011;5176;42.622;25.386;2023-06-04T02:19:15;8.20;;;6.00;;
9438;SDS011;5176;42.622;25.386;2023-06-04T02:21:44;7.75;;;6.68;;
9438;SDS011;5176;42.622;25.386;2023-06-04T02:24:11;7.10;;;6.10;;
9438;SDS011;5176;42.622;25.386;2023-06-04T02:26:38;7.03;;;5.82;;
9438;SDS011;5176;42.622;25.386;2023-06-04T02:29:05;6.97;;;6.28;;
9438;SDS011;5176;42.622;25.386;2023-06-04T02:31:34;10.85;;;6.10;;
9438;SDS011;5176;42.622;25.386;2023-06-04T02:34:01;8.40;;;6.25;;
9438;SDS011;5176;42.622;25.386;2023-06-04T02:36:29;7.55;;;5.88;;
9438;SDS011;5176;42.622;25.386;2023-06-04T02:38:56;8.80;;;5.95;;
9438;SDS011;5176;42.622;25.386;2023-06-04T02:41:23;7.22;;;5.97;;
9438;SDS011;5176;42.622;25.386;2023-06-04T02:43:50;8.98;;;6.15;;
9438;SDS011;5176;42.622;25.386;2023-06-04T02:46:17;9.40;;;6.15;;
9438;SDS011;5176;42.622;25.386;2023-06-04T02:48:46;8.75;;;7.10;;
9438;SDS011;5176;42.622;25.386;2023-06-04T02:51:13;8.15;;;6.20;;
9438;SDS011;5176;42.622;25.386;2023-06-04T02:53:40;7.10;;;6.22;;
9438;SDS011;5176;42.622;25.386;2023-06-04T02:56:07;7.82;;;6.15;;
9438;SDS011;5176;42.622;25.386;2023-06-04T02:58:34;11.18;;;6.47;;
9438;SDS011;5176;42.622;25.386;2023-06-04T03:01:04;7.43;;;6.68;;
9438;SDS011;5176;42.622;25.386;2023-06-04T03:03:32;10.05;;;6.85;;
9438;SDS011;5176;42.622;25.386;2023-06-04T03:06:00;7.28;;;6.50;;
9438;SDS011;5176;42.622;25.386;2023-06-04T03:08:30;9.45;;;6.57;;
9438;SDS011;5176;42.622;25.386;2023-06-04T03:10:57;6.65;;;6.05;;
9438;SDS011;5176;42.622;25.386;2023-06-04T03:13:24;8.48;;;6.55;;
9438;SDS011;5176;42.622;25.386;2023-06-04T03:15:51;9.60;;;6.88;;
9438;SDS011;5176;42.622;25.386;2023-06-04T03:18:20;6.88;;;6.28;;
9438;SDS011;5176;42.622;25.386;2023-06-04T03:20:48;7.03;;;6.30;;
9438;SDS011;5176;42.622;25.386;2023-06-04T03:23:16;9.48;;;7.07;;
9438;SDS011;5176;42.622;25.386;2023-06-04T03:25:43;6.90;;;6.07;;
9438;SDS011;5176;42.622;25.386;2023-06-04T03:28:11;9.68;;;6.85;;
9438;SDS011;5176;42.622;25.386;2023-06-04T03:30:39;8.98;;;7.32;;
9438;SDS011;5176;42.622;25.386;2023-06-04T03:33:07;11.98;;;7.60;;
9438;SDS011;5176;42.622;25.386;2023-06-04T03:35:34;10.18;;;7.43;;
9438;SDS011;5176;42.622;25.386;2023-06-04T03:38:01;8.65;;;6.55;;
9438;SDS011;5176;42.622;25.386;2023-06-04T03:40:30;9.13;;;7.47;;
9438;SDS011;5176;42.622;25.386;2023-06-04T03:42:57;8.27;;;7.35;;
9438;SDS011;5176;42.622;25.386;2023-06-04T03:45:25;8.73;;;6.82;;
9438;SDS011;5176;42.622;25.386;2023-06-04T03:47:52;8.23;;;7.43;;
9438;SDS011;5176;42.622;25.386;2023-06-04T03:50:19;6.75;;;6.10;;
9438;SDS011;5176;42.622;25.386;2023-06-04T03:52:47;11.13;;;7.00;;
9438;SDS011;5176;42.622;25.386;2023-06-04T03:55:14;7.40;;;6.60;;
9438;SDS011;5176;42.622;25.386;2023-06-04T03:57:43;7.82;;;6.95;;
9438;SDS011;5176;42.622;25.386;2023-06-04T04:00:11;7.22;;;6.53;;
9438;SDS011;5176;42.622;25.386;2023-06-04T04:02:39;8.05;;;7.35;;
9438;SDS011;5176;42.622;25.386;2023-06-04T04:05:07;7.95;;;7.25;;
9438;SDS011;5176;42.622;25.386;2023-06-04T04:07:36;11.02;;;7.40;;
9438;SDS011;5176;42.622;25.386;2023-06-04T04:10:03;12.80;;;6.90;;
9438;SDS011;5176;42.622;25.386;2023-06-04T04:12:32;7.72;;;7.03;;
9438;SDS011;5176;42.622;25.386;2023-06-04T04:15:00;8.73;;;6.60;;
9438;SDS011;5176;42.622;25.386;2023-06-04T04:17:27;8.95;;;7.07;;
9438;SDS011;5176;42.622;25.386;2023-06-04T04:19:55;8.77;;;7.13;;
9438;SDS011;5176;42.622;25.386;2023-06-04T04:22:22;7.38;;;6.68;;
9438;SDS011;5176;42.622;25.386;2023-06-04T04:24:50;9.32;;;7.28;;
9438;SDS011;5176;42.622;25.386;2023-06-04T04:27:17;9.55;;;7.50;;
9438;SDS011;5176;42.622;25.386;2023-06-04T04:29:44;7.15;;;6.53;;
9438;SDS011;5176;42.622;25.386;2023-06-04T04:32:15;8.25;;;7.07;;
9438;SDS011;5176;42.622;25.386;2023-06-04T04:34:49;6.97;;;6.32;;
9438;SDS011;5176;42.622;25.386;2023-06-04T04:37:19;8.52;;;7.60;;
9438;SDS011;5176;42.622;25.386;2023-06-04T04:39:47;7.80;;;6.93;;
9438;SDS011;5176;42.622;25.386;2023-06-04T04:42:17;7.50;;;6.88;;
9438;SDS011;5176;42.622;25.386;2023-06-04T04:44:44;7.78;;;7.07;;
9438;SDS011;5176;42.622;25.386;2023-06-04T04:47:14;7.70;;;7.10;;
9438;SDS011;5176;42.622;25.386;2023-06-04T04:49:42;9.98;;;7.20;;
9438;SDS011;5176;42.622;25.386;2023-06-04T04:52:09;8.07;;;7.25;;
9438;SDS011;5176;42.622;25.386;2023-06-04T04:54:36;9.65;;;6.82;;
9438;SDS011;5176;42.622;25.386;2023-06-04T04:57:04;7.68;;;6.97;;
9438;SDS011;5176;42.622;25.386;2023-06-04T04:59:32;9.15;;;6.82;;
9438;SDS011;5176;42.622;25.386;2023-06-04T05:02:00;7.93;;;7.18;;
9438;SDS011;5176;42.622;25.386;2023-06-04T05:04:29;7.55;;;6.82;;
9438;SDS011;5176;42.622;25.386;2023-06-04T05:06:56;11.23;;;6.28;;
9438;SDS011;5176;42.622;25.386;2023-06-04T05:09:23;29.10;;;7.82;;
9438;SDS011;5176;42.622;25.386;2023-06-04T05:11:51;9.52;;;7.25;;
9438;SDS011;5176;42.622;25.386;2023-06-04T05:14:18;10.75;;;8.00;;
9438;SDS011;5176;42.622;25.386;2023-06-04T05:16:45;8.35;;;7.65;;
9438;SDS011;5176;42.622;25.386;2023-06-04T05:19:13;11.60;;;8.63;;
9438;SDS011;5176;42.622;25.386;2023-06-04T05:21:44;8.98;;;7.28;;
9438;SDS011;5176;42.622;25.386;2023-06-04T05:24:11;8.77;;;7.30;;
9438;SDS011;5176;42.622;25.386;2023-06-04T05:26:38;7.10;;;6.43;;
9438;SDS011;5176;42.622;25.386;2023-06-04T05:29:06;8.05;;;7.28;;
9438;SDS011;5176;42.622;25.386;2023-06-04T05:31:33;11.18;;;7.75;;
9438;SDS011;5176;42.622;25.386;2023-06-04T05:34:02;7.97;;;7.15;;
9438;SDS011;5176;42.622;25.386;2023-06-04T05:36:30;7.90;;;7.20;;
9438;SDS011;5176;42.622;25.386;2023-06-04T05:38:59;9.13;;;7.35;;
9438;SDS011;5176;42.622;25.386;2023-06-04T05:41:26;7.60;;;7.00;;
9438;SDS011;5176;42.622;25.386;2023-06-04T05:43:54;7.28;;;6.63;;
9438;SDS011;5176;42.622;25.386;2023-06-04T05:46:21;7.68;;;6.88;;
9438;SDS011;5176;42.622;25.386;2023-06-04T05:48:48;10.40;;;7.10;;
9438;SDS011;5176;42.622;25.386;2023-06-04T05:51:16;7.20;;;6.60;;
9438;SDS011;5176;42.622;25.386;2023-06-04T05:53:43;7.10;;;6.45;;
9438;SDS011;5176;42.622;25.386;2023-06-04T05:56:12;7.53;;;6.75;;
9438;SDS011;5176;42.622;25.386;2023-06-04T05:58:39;8.07;;;7.20;;
9438;SDS011;5176;42.622;25.386;2023-06-04T06:01:07;7.75;;;7.00;;
9438;SDS011;5176;42.622;25.386;2023-06-04T06:03:34;7.63;;;6.93;;
9438;SDS011;5176;42.622;25.386;2023-06-04T06:06:01;8.15;;;7.22;;
9438;SDS011;5176;42.622;25.386;2023-06-04T06:08:31;13.93;;;10.70;;
9438;SDS011;5176;42.622;25.386;2023-06-04T06:10:58;7.63;;;6.93;;
9438;SDS011;5176;42.622;25.386;2023-06-04T06:13:27;7.43;;;6.55;;
9438;SDS011;5176;42.622;25.386;2023-06-04T06:15:55;8.00;;;7.25;;
9438;SDS011;5176;42.622;25.386;2023-06-04T06:18:22;11.00;;;7.15;;
9438;SDS011;5176;42.622;25.386;2023-06-04T06:20:50;7.05;;;6.35;;
9438;SDS011;5176;42.622;25.386;2023-06-04T06:23:17;6.95;;;6.32;;
9438;SDS011;5176;42.622;25.386;2023-06-04T06:25:46;6.97;;;6.28;;
9438;SDS011;5176;42.622;25.386;2023-06-04T06:28:16;7.03;;;6.43;;
9438;SDS011;5176;42.622;25.386;2023-06-04T06:30:45;9.95;;;6.53;;
9438;SDS011;5176;42.622;25.386;2023-06-04T06:33:13;9.82;;;6.35;;
9438;SDS011;5176;42.622;25.386;2023-06-04T06:35:41;7.40;;;6.70;;
9438;SDS011;5176;42.622;25.386;2023-06-04T06:38:11;6.97;;;6.22;;
9438;SDS011;5176;42.622;25.386;2023-06-04T06:40:40;7.15;;;6.43;;
9438;SDS011;5176;42.622;25.386;2023-06-04T06:43:07;7.22;;;6.53;;
9438;SDS011;5176;42.622;25.386;2023-06-04T06:45:35;6.97;;;6.40;;
9438;SDS011;5176;42.622;25.386;2023-06-04T06:48:04;7.95;;;6.85;;
9438;SDS011;5176;42.622;25.386;2023-06-04T06:50:32;8.73;;;6.88;;
9438;SDS011;5176;42.622;25.386;2023-06-04T06:53:00;8.65;;;7.30;;
9438;SDS011;5176;42.622;25.386;2023-06-04T06:55:28;8.27;;;7.45;;
9438;SDS011;5176;42.622;25.386;2023-06-04T06:57:55;8.38;;;7.57;;
9438;SDS011;5176;42.622;25.386;2023-06-04T07:00:22;9.52;;;7.90;;
9438;SDS011;5176;42.622;25.386;2023-06-04T07:02:50;8.88;;;7.72;;
9438;SDS011;5176;42.622;25.386;2023-06-04T07:05:19;9.98;;;7.85;;
9438;SDS011;5176;42.622;25.386;2023-06-04T07:07:46;9.25;;;8.32;;
9438;SDS011;5176;42.622;25.386;2023-06-04T07:10:14;10.20;;;9.20;;
9438;SDS011;5176;42.622;25.386;2023-06-04T07:12:42;9.35;;;8.55;;
9438;SDS011;5176;42.622;25.386;2023-06-04T07:15:09;10.27;;;9.15;;
9438;SDS011;5176;42.622;25.386;2023-06-04T07:17:37;10.27;;;9.15;;
9438;SDS011;5176;42.622;25.386;2023-06-04T07:20:05;10.07;;;9.27;;
9438;SDS011;5176;42.622;25.386;2023-06-04T07:22:36;11.48;;;10.05;;
9438;SDS011;5176;42.622;25.386;2023-06-04T07:25:03;11.43;;;10.30;;
9438;SDS011;5176;42.622;25.386;2023-06-04T07:27:33;12.27;;;11.02;;
9438;SDS011;5176;42.622;25.386;2023-06-04T07:30:01;14.85;;;12.60;;
9438;SDS011;5176;42.622;25.386;2023-06-04T07:32:28;13.93;;;12.57;;
9438;SDS011;5176;42.622;25.386;2023-06-04T07:34:55;13.70;;;12.50;;
9438;SDS011;5176;42.622;25.386;2023-06-04T07:37:23;14.65;;;13.07;;
9438;SDS011;5176;42.622;25.386;2023-06-04T07:39:52;14.55;;;13.05;;
9438;SDS011;5176;42.622;25.386;2023-06-04T07:42:19;12.85;;;11.70;;
9438;SDS011;5176;42.622;25.386;2023-06-04T07:44:47;13.18;;;11.55;;
9438;SDS011;5176;42.622;25.386;2023-06-04T07:47:14;15.38;;;10.45;;
9438;SDS011;5176;42.622;25.386;2023-06-04T07:49:41;10.80;;;9.80;;
9438;SDS011;5176;42.622;25.386;2023-06-04T07:52:09;9.10;;;8.30;;
9438;SDS011;5176;42.622;25.386;2023-06-04T07:54:37;10.93;;;8.43;;
9438;SDS011;5176;42.622;25.386;2023-06-04T07:57:08;9.48;;;8.45;;
9438;SDS011;5176;42.622;25.386;2023-06-04T07:59:35;9.30;;;8.40;;
9438;SDS011;5176;42.622;25.386;2023-06-04T08:02:03;9.15;;;8.25;;
9438;SDS011;5176;42.622;25.386;2023-06-04T08:04:31;8.07;;;7.38;;
9438;SDS011;5176;42.622;25.386;2023-06-04T08:06:58;7.85;;;7.15;;
9438;SDS011;5176;42.622;25.386;2023-06-04T08:09:25;7.15;;;6.55;;
9438;SDS011;5176;42.622;25.386;2023-06-04T08:11:53;10.80;;;6.63;;
9438;SDS011;5176;42.622;25.386;2023-06-04T08:14:22;7.47;;;6.78;;
9438;SDS011;5176;42.622;25.386;2023-06-04T08:16:52;7.28;;;6.68;;
9438;SDS011;5176;42.622;25.386;2023-06-04T08:19:19;7.13;;;6.53;;
9438;SDS011;5176;42.622;25.386;2023-06-04T08:21:47;6.78;;;6.15;;
9438;SDS011;5176;42.622;25.386;2023-06-04T08:24:15;7.93;;;7.20;;
9438;SDS011;5176;42.622;25.386;2023-06-04T08:26:42;7.63;;;6.97;;
9438;SDS011;5176;42.622;25.386;2023-06-04T08:29:10;8.90;;;8.00;;
9438;SDS011;5176;42.622;25.386;2023-06-04T08:31:39;12.25;;;10.07;;
9438;SDS011;5176;42.622;25.386;2023-06-04T08:34:06;12.90;;;11.00;;
9438;SDS011;5176;42.622;25.386;2023-06-04T08:36:33;12.07;;;10.57;;
9438;SDS011;5176;42.622;25.386;2023-06-04T08:39:01;11.43;;;10.38;;
9438;SDS011;5176;42.622;25.386;2023-06-04T08:41:28;11.30;;;10.27;;
9438;SDS011;5176;42.622;25.386;2023-06-04T08:44:00;12.07;;;10.20;;
9438;SDS011;5176;42.622;25.386;2023-06-04T08:46:31;13.40;;;10.30;;
9438;SDS011;5176;42.622;25.386;2023-06-04T08:49:00;12.05;;;10.80;;
9438;SDS011;5176;42.622;25.386;2023-06-04T08:51:29;12.15;;;10.48;;
9438;SDS011;5176;42.622;25.386;2023-06-04T08:54:02;12.15;;;9.55;;
9438;SDS011;5176;42.622;25.386;2023-06-04T08:56:31;10.40;;;9.32;;
9438;SDS011;5176;42.622;25.386;2023-06-04T08:59:00;10.48;;;9.57;;
9438;SDS011;5176;42.622;25.386;2023-06-04T09:01:29;11.15;;;9.38;;
9438;SDS011;5176;42.622;25.386;2023-06-04T09:03:58;9.68;;;8.80;;
9438;SDS011;5176;42.622;25.386;2023-06-04T09:06:30;9.38;;;8.55;;
9438;SDS011;5176;42.622;25.386;2023-06-04T09:08:59;9.85;;;8.75;;
9438;SDS011;5176;42.622;25.386;2023-06-04T09:11:32;11.55;;;9.15;;
9438;SDS011;5176;42.622;25.386;2023-06-04T09:14:03;9.98;;;9.00;;
9438;SDS011;5176;42.622;25.386;2023-06-04T09:16:41;10.70;;;9.68;;
9438;SDS011;5176;42.622;25.386;2023-06-04T09:19:11;16.20;;;9.70;;
9438;SDS011;5176;42.622;25.386;2023-06-04T09:21:51;10.60;;;9.50;;
9438;SDS011;5176;42.622;25.386;2023-06-04T09:24:19;9.45;;;8.48;;
9438;SDS011;5176;42.622;25.386;2023-06-04T09:26:47;9.60;;;8.80;;
9438;SDS011;5176;42.622;25.386;2023-06-04T09:29:15;9.15;;;8.25;;
9438;SDS011;5176;42.622;25.386;2023-06-04T09:31:44;10.35;;;8.30;;
9438;SDS011;5176;42.622;25.386;2023-06-04T09:34:14;11.90;;;8.43;;
9438;SDS011;5176;42.622;25.386;2023-06-04T09:36:41;10.00;;;8.00;;
9438;SDS011;5176;42.622;25.386;2023-06-04T09:39:14;8.40;;;7.70;;
9438;SDS011;5176;42.622;25.386;2023-06-04T09:41:42;8.70;;;7.88;;
9438;SDS011;5176;42.622;25.386;2023-06-04T09:44:10;8.63;;;7.65;;
9438;SDS011;5176;42.622;25.386;2023-06-04T09:46:37;10.93;;;7.70;;
9438;SDS011;5176;42.622;25.386;2023-06-04T09:49:05;8.90;;;8.10;;
9438;SDS011;5176;42.622;25.386;2023-06-04T09:51:34;8.73;;;8.02;;
9438;SDS011;5176;42.622;25.386;2023-06-04T09:54:02;8.65;;;7.85;;
9438;SDS011;5176;42.622;25.386;2023-06-04T09:56:30;8.65;;;7.43;;
9438;SDS011;5176;42.622;25.386;2023-06-04T09:59:07;7.93;;;7.32;;
9438;SDS011;5176;42.622;25.386;2023-06-04T10:01:38;8.85;;;8.05;;
9438;SDS011;5176;42.622;25.386;2023-06-04T10:04:07;10.05;;;8.57;;
9438;SDS011;5176;42.622;25.386;2023-06-04T10:06:38;8.07;;;7.28;;
9438;SDS011;5176;42.622;25.386;2023-06-04T10:09:07;8.10;;;7.40;;
9438;SDS011;5176;42.622;25.386;2023-06-04T10:11:35;11.35;;;8.15;;
9438;SDS011;5176;42.622;25.386;2023-06-04T10:14:10;8.10;;;7.28;;
9438;SDS011;5176;42.622;25.386;2023-06-04T10:16:44;7.68;;;7.07;;
9438;SDS011;5176;42.622;25.386;2023-06-04T10:19:12;8.20;;;7.40;;
9438;SDS011;5176;42.622;25.386;2023-06-04T10:21:41;8.98;;;8.07;;
9438;SDS011;5176;42.622;25.386;2023-06-04T10:24:09;8.73;;;7.88;;
9438;SDS011;5176;42.622;25.386;2023-06-04T10:26:37;9.02;;;7.63;;
9438;SDS011;5176;42.622;25.386;2023-06-04T10:29:06;8.07;;;6.82;;
9438;SDS011;5176;42.622;25.386;2023-06-04T10:31:37;8.00;;;7.20;;
9438;SDS011;5176;42.622;25.386;2023-06-04T10:34:06;7.35;;;6.28;;
9438;SDS011;5176;42.622;25.386;2023-06-04T10:36:43;6.97;;;6.38;;
9438;SDS011;5176;42.622;25.386;2023-06-04T10:39:11;9.55;;;6.25;;
9438;SDS011;5176;42.622;25.386;2023-06-04T10:41:39;7.97;;;6.60;;
9438;SDS011;5176;42.622;25.386;2023-06-04T10:44:07;7.50;;;6.40;;
9438;SDS011;5176;42.622;25.386;2023-06-04T10:46:38;7.15;;;6.55;;
9438;SDS011;5176;42.622;25.386;2023-06-04T10:49:07;6.15;;;5.65;;
9438;SDS011;5176;42.622;25.386;2023-06-04T10:51:36;7.60;;;6.47;;
9438;SDS011;5176;42.622;25.386;2023-06-04T10:54:05;7.63;;;5.95;;
9438;SDS011;5176;42.622;25.386;2023-06-04T10:56:32;6.78;;;6.25;;
9438;SDS011;5176;42.622;25.386;2023-06-04T10:59:13;6.85;;;6.10;;
9438;SDS011;5176;42.622;25.386;2023-06-04T11:01:41;6.72;;;6.10;;
9438;SDS011;5176;42.622;25.386;2023-06-04T11:04:17;7.88;;;6.18;;
9438;SDS011;5176;42.622;25.386;2023-06-04T11:06:46;7.00;;;5.95;;
9438;SDS011;5176;42.622;25.386;2023-06-04T11:09:15;8.52;;;6.30;;
9438;SDS011;5176;42.622;25.386;2023-06-04T11:11:44;8.95;;;6.32;;
9438;SDS011;5176;42.622;25.386;2023-06-04T11:14:22;7.18;;;6.57;;
9438;SDS011;5176;42.622;25.386;2023-06-04T11:16:50;7.40;;;6.72;;
9438;SDS011;5176;42.622;25.386;2023-06-04T11:19:17;7.95;;;6.80;;
9438;SDS011;5176;42.622;25.386;2023-06-04T11:21:45;7.35;;;6.75;;
9438;SDS011;5176;42.622;25.386;2023-06-04T11:24:14;7.20;;;6.50;;
9438;SDS011;5176;42.622;25.386;2023-06-04T11:26:43;7.75;;;6.95;;
9438;SDS011;5176;42.622;25.386;2023-06-04T11:29:13;7.20;;;6.50;;
9438;SDS011;5176;42.622;25.386;2023-06-04T11:31:41;6.85;;;6.00;;
9438;SDS011;5176;42.622;25.386;2023-06-04T11:34:09;7.40;;;6.78;;
9438;SDS011;5176;42.622;25.386;2023-06-04T11:36:39;7.50;;;6.63;;
9438;SDS011;5176;42.622;25.386;2023-06-04T11:39:06;6.95;;;6.35;;
9438;SDS011;5176;42.622;25.386;2023-06-04T11:41:35;7.30;;;6.53;;
9438;SDS011;5176;42.622;25.386;2023-06-04T11:44:04;8.95;;;6.72;;
9438;SDS011;5176;42.622;25.386;2023-06-04T11:46:32;7.95;;;6.60;;
9438;SDS011;5176;42.622;25.386;2023-06-04T11:49:00;7.30;;;6.70;;
9438;SDS011;5176;42.622;25.386;2023-06-04T11:51:29;7.00;;;6.40;;
9438;SDS011;5176;42.622;25.386;2023-06-04T11:53:57;9.23;;;6.82;;
9438;SDS011;5176;42.622;25.386;2023-06-04T11:56:27;7.80;;;7.13;;
9438;SDS011;5176;42.622;25.386;2023-06-04T11:58:55;7.35;;;6.75;;
9438;SDS011;5176;42.622;25.386;2023-06-04T12:01:24;7.32;;;6.68;;
9438;SDS011;5176;42.622;25.386;2023-06-04T12:03:54;10.80;;;6.85;;
9438;SDS011;5176;42.622;25.386;2023-06-04T12:06:21;6.53;;;6.03;;
9438;SDS011;5176;42.622;25.386;2023-06-04T12:08:49;6.85;;;6.22;;
9438;SDS011;5176;42.622;25.386;2023-06-04T12:11:25;7.43;;;6.07;;
9438;SDS011;5176;42.622;25.386;2023-06-04T12:13:58;6.47;;;5.95;;
9438;SDS011;5176;42.622;25.386;2023-06-04T12:16:26;8.77;;;6.32;;
9438;SDS011;5176;42.622;25.386;2023-06-04T12:19:04;7.25;;;6.65;;
9438;SDS011;5176;42.622;25.386;2023-06-04T12:21:35;7.28;;;6.63;;
9438;SDS011;5176;42.622;25.386;2023-06-04T12:24:06;7.10;;;6.47;;
9438;SDS011;5176;42.622;25.386;2023-06-04T12:26:35;7.70;;;6.90;;
9438;SDS011;5176;42.622;25.386;2023-06-04T12:29:11;7.78;;;7.00;;
9438;SDS011;5176;42.622;25.386;2023-06-04T12:31:39;6.88;;;6.28;;
9438;SDS011;5176;42.622;25.386;2023-06-04T12:34:08;14.90;;;13.50;;
9438;SDS011;5176;42.622;25.386;2023-06-04T12:36:36;8.10;;;7.35;;
9438;SDS011;5176;42.622;25.386;2023-06-04T12:39:04;7.97;;;7.18;;
9438;SDS011;5176;42.622;25.386;2023-06-04T12:41:32;29.42;;;26.35;;
9438;SDS011;5176;42.622;25.386;2023-06-04T12:44:00;17.13;;;15.32;;
9438;SDS011;5176;42.622;25.386;2023-06-04T12:46:29;9.13;;;8.23;;
9438;SDS011;5176;42.622;25.386;2023-06-04T12:48:56;10.73;;;8.60;;
9438;SDS011;5176;42.622;25.386;2023-06-04T12:51:23;8.73;;;7.80;;
9438;SDS011;5176;42.622;25.386;2023-06-04T12:53:51;8.32;;;7.53;;
9438;SDS011;5176;42.622;25.386;2023-06-04T12:56:18;12.32;;;10.27;;
9438;SDS011;5176;42.622;25.386;2023-06-04T12:58:47;10.82;;;8.73;;
9438;SDS011;5176;42.622;25.386;2023-06-04T13:01:14;10.73;;;8.77;;
9438;SDS011;5176;42.622;25.386;2023-06-04T13:03:43;9.45;;;7.88;;
9438;SDS011;5176;42.622;25.386;2023-06-04T13:06:10;9.25;;;8.35;;
9438;SDS011;5176;42.622;25.386;2023-06-04T13:08:37;10.13;;;9.18;;
9438;SDS011;5176;42.622;25.386;2023-06-04T13:11:05;10.60;;;8.88;;
9438;SDS011;5176;42.622;25.386;2023-06-04T13:13:33;9.70;;;8.80;;
9438;SDS011;5176;42.622;25.386;2023-06-04T13:16:00;10.50;;;9.50;;
9438;SDS011;5176;42.622;25.386;2023-06-04T13:18:28;11.38;;;9.20;;
9438;SDS011;5176;42.622;25.386;2023-06-04T13:20:57;10.30;;;9.30;;
9438;SDS011;5176;42.622;25.386;2023-06-04T13:23:24;11.20;;;10.20;;
9438;SDS011;5176;42.622;25.386;2023-06-04T13:25:51;11.70;;;10.23;;
9438;SDS011;5176;42.622;25.386;2023-06-04T13:28:18;10.52;;;9.45;;
9438;SDS011;5176;42.622;25.386;2023-06-04T13:30:46;9.88;;;9.07;;
9438;SDS011;5176;42.622;25.386;2023-06-04T13:33:14;11.05;;;9.95;;
9438;SDS011;5176;42.622;25.386;2023-06-04T13:35:41;13.07;;;10.20;;
9438;SDS011;5176;42.622;25.386;2023-06-04T13:38:11;11.60;;;10.43;;
9438;SDS011;5176;42.622;25.386;2023-06-04T13:40:38;10.88;;;9.88;;
9438;SDS011;5176;42.622;25.386;2023-06-04T13:43:06;11.85;;;10.80;;
9438;SDS011;5176;42.622;25.386;2023-06-04T13:45:34;10.93;;;9.77;;
9438;SDS011;5176;42.622;25.386;2023-06-04T13:48:02;9.98;;;9.15;;
9438;SDS011;5176;42.622;25.386;2023-06-04T13:50:33;8.85;;;8.05;;
9438;SDS011;5176;42.622;25.386;2023-06-04T13:53:00;7.03;;;6.53;;
9438;SDS011;5176;42.622;25.386;2023-06-04T13:55:29;6.80;;;6.22;;
9438;SDS011;5176;42.622;25.386;2023-06-04T13:57:57;7.05;;;6.47;;
9438;SDS011;5176;42.622;25.386;2023-06-04T14:00:24;7.57;;;6.97;;
9438;SDS011;5176;42.622;25.386;2023-06-04T14:02:52;6.90;;;6.40;;
9438;SDS011;5176;42.622;25.386;2023-06-04T14:05:20;6.65;;;5.97;;
9438;SDS011;5176;42.622;25.386;2023-06-04T14:07:48;5.88;;;5.47;;
9438;SDS011;5176;42.622;25.386;2023-06-04T14:10:16;5.53;;;5.03;;
9438;SDS011;5176;42.622;25.386;2023-06-04T14:12:45;7.35;;;5.63;;
9438;SDS011;5176;42.622;25.386;2023-06-04T14:15:12;4.80;;;4.40;;
9438;SDS011;5176;42.622;25.386;2023-06-04T14:17:40;4.82;;;4.50;;
9438;SDS011;5176;42.622;25.386;2023-06-04T14:20:08;4.93;;;4.50;;
9438;SDS011;5176;42.622;25.386;2023-06-04T14:22:36;5.15;;;4.75;;
9438;SDS011;5176;42.622;25.386;2023-06-04T14:25:04;5.05;;;4.65;;
9438;SDS011;5176;42.622;25.386;2023-06-04T14:27:32;5.15;;;4.70;;
9438;SDS011;5176;42.622;25.386;2023-06-04T14:30:02;5.80;;;5.13;;
9438;SDS011;5176;42.622;25.386;2023-06-04T14:32:30;5.85;;;5.30;;
9438;SDS011;5176;42.622;25.386;2023-06-04T14:34:59;5.85;;;5.25;;
9438;SDS011;5176;42.622;25.386;2023-06-04T14:37:26;6.28;;;5.72;;
9438;SDS011;5176;42.622;25.386;2023-06-04T14:39:54;5.93;;;5.43;;
9438;SDS011;5176;42.622;25.386;2023-06-04T14:42:21;8.38;;;6.40;;
9438;SDS011;5176;42.622;25.386;2023-06-04T14:44:49;7.22;;;6.63;;
9438;SDS011;5176;42.622;25.386;2023-06-04T14:47:17;6.53;;;5.82;;
9438;SDS011;5176;42.622;25.386;2023-06-04T14:49:45;7.03;;;6.43;;
9438;SDS011;5176;42.622;25.386;2023-06-04T14:52:12;7.15;;;6.55;;
9438;SDS011;5176;42.622;25.386;2023-06-04T14:54:39;7.65;;;6.05;;
9438;SDS011;5176;42.622;25.386;2023-06-04T14:57:06;8.00;;;7.20;;
9438;SDS011;5176;42.622;25.386;2023-06-04T14:59:33;6.80;;;6.20;;
9438;SDS011;5176;42.622;25.386;2023-06-04T15:02:04;7.53;;;6.60;;
9438;SDS011;5176;42.622;25.386;2023-06-04T15:04:33;6.00;;;5.28;;